sensor_id;sensor_type;location;lat;lon;timestamp;P1;durP1;ratioP1;P2;durP2;ratioP2
26530;SDS011;14201;43.188;24.160;2023-09-08T00:01:53;8.77;;;6.70;;
26530;SDS011;14201;43.188;24.160;2023-09-08T00:04:18;9.02;;;6.45;;
26530;SDS011;14201;43.188;24.160;2023-09-08T00:06:46;13.45;;;6.57;;
26530;SDS011;14201;43.188;24.160;2023-09-08T00:09:11;9.50;;;6.78;;
26530;SDS011;14201;43.188;24.160;2023-09-08T00:11:37;11.77;;;7.47;;
26530;SDS011;14201;43.188;24.160;2023-09-08T00:14:02;10.45;;;6.40;;
26530;SDS011;14201;43.188;24.160;2023-09-08T00:16:29;13.90;;;7.22;;
26530;SDS011;14201;43.188;24.160;2023-09-08T00:18:55;17.92;;;7.15;;
26530;SDS011;14201;43.188;24.160;2023-09-08T00:21:23;10.68;;;6.53;;
26530;SDS011;14201;43.188;24.160;2023-09-08T00:23:50;11.15;;;6.38;;
26530;SDS011;14201;43.188;24.160;2023-09-08T00:26:16;8.48;;;6.88;;
26530;SDS011;14201;43.188;24.160;2023-09-08T00:28:41;14.63;;;6.57;;
26530;SDS011;14201;43.188;24.160;2023-09-08T00:31:07;13.10;;;6.05;;
26530;SDS011;14201;43.188;24.160;2023-09-08T00:33:33;16.67;;;6.35;;
26530;SDS011;14201;43.188;24.160;2023-09-08T00:35:58;9.50;;;5.57;;
26530;SDS011;14201;43.188;24.160;2023-09-08T00:38:24;9.65;;;5.65;;
26530;SDS011;14201;43.188;24.160;2023-09-08T00:40:50;10.52;;;5.65;;
26530;SDS011;14201;43.188;24.160;2023-09-08T00:43:16;12.70;;;5.68;;
26530;SDS011;14201;43.188;24.160;2023-09-08T00:45:43;8.60;;;5.80;;
26530;SDS011;14201;43.188;24.160;2023-09-08T00:48:09;12.65;;;6.60;;
26530;SDS011;14201;43.188;24.160;2023-09-08T00:50:35;8.77;;;6.30;;
26530;SDS011;14201;43.188;24.160;2023-09-08T00:53:05;8.23;;;5.63;;
26530;SDS011;14201;43.188;24.160;2023-09-08T00:57:58;7.70;;;6.35;;
26530;SDS011;14201;43.188;24.160;2023-09-08T01:00:27;9.95;;;6.28;;
26530;SDS011;14201;43.188;24.160;2023-09-08T01:02:53;7.38;;;6.32;;
26530;SDS011;14201;43.188;24.160;2023-09-08T01:05:19;8.02;;;6.78;;
26530;SDS011;14201;43.188;24.160;2023-09-08T01:07:45;11.18;;;7.22;;
26530;SDS011;14201;43.188;24.160;2023-09-08T01:10:11;10.35;;;5.80;;
26530;SDS011;14201;43.188;24.160;2023-09-08T01:12:38;7.90;;;5.32;;
26530;SDS011;14201;43.188;24.160;2023-09-08T01:15:04;8.90;;;6.25;;
26530;SDS011;14201;43.188;24.160;2023-09-08T01:17:31;13.80;;;6.63;;
26530;SDS011;14201;43.188;24.160;2023-09-08T01:19:56;10.48;;;6.20;;
26530;SDS011;14201;43.188;24.160;2023-09-08T01:27:48;10.18;;;6.25;;
26530;SDS011;14201;43.188;24.160;2023-09-08T01:30:21;10.60;;;6.50;;
26530;SDS011;14201;43.188;24.160;2023-09-08T01:32:50;9.20;;;6.18;;
26530;SDS011;14201;43.188;24.160;2023-09-08T01:35:17;11.85;;;6.13;;
26530;SDS011;14201;43.188;24.160;2023-09-08T01:37:46;9.40;;;6.50;;
26530;SDS011;14201;43.188;24.160;2023-09-08T01:40:12;12.13;;;6.80;;
26530;SDS011;14201;43.188;24.160;2023-09-08T01:42:38;7.57;;;6.80;;
26530;SDS011;14201;43.188;24.160;2023-09-08T01:45:05;9.85;;;6.50;;
26530;SDS011;14201;43.188;24.160;2023-09-08T01:47:31;9.43;;;6.88;;
26530;SDS011;14201;43.188;24.160;2023-09-08T01:49:57;9.18;;;6.32;;
26530;SDS011;14201;43.188;24.160;2023-09-08T01:52:23;8.38;;;6.88;;
26530;SDS011;14201;43.188;24.160;2023-09-08T01:54:49;11.35;;;7.15;;
26530;SDS011;14201;43.188;24.160;2023-09-08T01:57:15;10.25;;;6.95;;
26530;SDS011;14201;43.188;24.160;2023-09-08T01:59:40;12.02;;;6.90;;
26530;SDS011;14201;43.188;24.160;2023-09-08T02:02:06;12.60;;;8.07;;
26530;SDS011;14201;43.188;24.160;2023-09-08T02:04:32;9.55;;;7.68;;
26530;SDS011;14201;43.188;24.160;2023-09-08T02:06:57;13.80;;;7.40;;
26530;SDS011;14201;43.188;24.160;2023-09-08T02:09:29;9.82;;;6.97;;
26530;SDS011;14201;43.188;24.160;2023-09-08T02:11:56;8.10;;;6.80;;
26530;SDS011;14201;43.188;24.160;2023-09-08T02:14:21;13.27;;;7.13;;
26530;SDS011;14201;43.188;24.160;2023-09-08T02:16:47;9.27;;;7.35;;
26530;SDS011;14201;43.188;24.160;2023-09-08T02:19:12;10.90;;;7.18;;
26530;SDS011;14201;43.188;24.160;2023-09-08T02:21:38;10.25;;;6.90;;
26530;SDS011;14201;43.188;24.160;2023-09-08T02:24:04;14.45;;;7.43;;
26530;SDS011;14201;43.188;24.160;2023-09-08T02:26:30;10.27;;;7.00;;
26530;SDS011;14201;43.188;24.160;2023-09-08T02:28:58;10.00;;;7.22;;
26530;SDS011;14201;43.188;24.160;2023-09-08T02:31:23;10.45;;;7.13;;
26530;SDS011;14201;43.188;24.160;2023-09-08T02:33:49;12.48;;;6.70;;
26530;SDS011;14201;43.188;24.160;2023-09-08T02:36:15;10.63;;;7.50;;
26530;SDS011;14201;43.188;24.160;2023-09-08T02:38:40;9.02;;;6.63;;
26530;SDS011;14201;43.188;24.160;2023-09-08T02:41:06;14.43;;;6.53;;
26530;SDS011;14201;43.188;24.160;2023-09-08T02:43:31;8.20;;;6.43;;
26530;SDS011;14201;43.188;24.160;2023-09-08T02:45:57;10.95;;;6.50;;
26530;SDS011;14201;43.188;24.160;2023-09-08T02:48:22;10.68;;;6.93;;
26530;SDS011;14201;43.188;24.160;2023-09-08T02:50:48;9.43;;;6.55;;
26530;SDS011;14201;43.188;24.160;2023-09-08T02:53:13;10.85;;;6.40;;
26530;SDS011;14201;43.188;24.160;2023-09-08T02:55:39;8.40;;;6.50;;
26530;SDS011;14201;43.188;24.160;2023-09-08T02:58:05;9.68;;;6.63;;
26530;SDS011;14201;43.188;24.160;2023-09-08T03:00:30;10.52;;;6.60;;
26530;SDS011;14201;43.188;24.160;2023-09-08T03:02:56;7.97;;;6.15;;
26530;SDS011;14201;43.188;24.160;2023-09-08T03:05:21;10.63;;;6.60;;
26530;SDS011;14201;43.188;24.160;2023-09-08T03:07:47;7.85;;;6.57;;
26530;SDS011;14201;43.188;24.160;2023-09-08T03:10:14;9.63;;;6.43;;
26530;SDS011;14201;43.188;24.160;2023-09-08T03:12:40;7.55;;;6.28;;
26530;SDS011;14201;43.188;24.160;2023-09-08T03:15:06;8.63;;;5.93;;
26530;SDS011;14201;43.188;24.160;2023-09-08T03:17:32;10.50;;;6.65;;
26530;SDS011;14201;43.188;24.160;2023-09-08T03:19:58;10.50;;;6.55;;
26530;SDS011;14201;43.188;24.160;2023-09-08T03:22:24;8.77;;;6.22;;
26530;SDS011;14201;43.188;24.160;2023-09-08T03:24:50;8.45;;;5.97;;
26530;SDS011;14201;43.188;24.160;2023-09-08T03:27:15;11.18;;;6.65;;
26530;SDS011;14201;43.188;24.160;2023-09-08T03:29:41;10.95;;;7.00;;
26530;SDS011;14201;43.188;24.160;2023-09-08T03:32:06;9.40;;;6.72;;
26530;SDS011;14201;43.188;24.160;2023-09-08T03:34:32;10.75;;;6.40;;
26530;SDS011;14201;43.188;24.160;2023-09-08T03:36:58;8.52;;;6.45;;
26530;SDS011;14201;43.188;24.160;2023-09-08T03:39:23;9.68;;;6.25;;
26530;SDS011;14201;43.188;24.160;2023-09-08T03:41:49;12.98;;;6.68;;
26530;SDS011;14201;43.188;24.160;2023-09-08T03:44:15;12.18;;;6.60;;
26530;SDS011;14201;43.188;24.160;2023-09-08T03:46:40;8.00;;;6.38;;
26530;SDS011;14201;43.188;24.160;2023-09-08T03:49:06;11.00;;;6.70;;
26530;SDS011;14201;43.188;24.160;2023-09-08T03:51:32;9.57;;;6.53;;
26530;SDS011;14201;43.188;24.160;2023-09-08T03:53:58;9.38;;;6.30;;
26530;SDS011;14201;43.188;24.160;2023-09-08T03:56:23;7.47;;;5.93;;
26530;SDS011;14201;43.188;24.160;2023-09-08T03:58:49;7.88;;;6.53;;
26530;SDS011;14201;43.188;24.160;2023-09-08T04:01:15;12.27;;;6.68;;
26530;SDS011;14201;43.188;24.160;2023-09-08T04:03:40;12.90;;;6.53;;
26530;SDS011;14201;43.188;24.160;2023-09-08T04:06:06;10.38;;;6.07;;
26530;SDS011;14201;43.188;24.160;2023-09-08T04:08:31;11.82;;;6.80;;
26530;SDS011;14201;43.188;24.160;2023-09-08T04:10:57;12.77;;;6.97;;
26530;SDS011;14201;43.188;24.160;2023-09-08T04:13:23;8.80;;;6.22;;
26530;SDS011;14201;43.188;24.160;2023-09-08T04:15:48;10.05;;;6.10;;
26530;SDS011;14201;43.188;24.160;2023-09-08T04:18:14;10.55;;;5.90;;
26530;SDS011;14201;43.188;24.160;2023-09-08T04:20:39;8.05;;;6.25;;
26530;SDS011;14201;43.188;24.160;2023-09-08T04:23:05;10.70;;;6.38;;
26530;SDS011;14201;43.188;24.160;2023-09-08T04:25:30;10.40;;;6.50;;
26530;SDS011;14201;43.188;24.160;2023-09-08T04:27:56;12.57;;;6.60;;
26530;SDS011;14201;43.188;24.160;2023-09-08T04:30:22;10.52;;;6.43;;
26530;SDS011;14201;43.188;24.160;2023-09-08T04:32:47;11.10;;;6.43;;
26530;SDS011;14201;43.188;24.160;2023-09-08T04:35:13;12.93;;;6.93;;
26530;SDS011;14201;43.188;24.160;2023-09-08T04:37:38;9.70;;;6.43;;
26530;SDS011;14201;43.188;24.160;2023-09-08T04:40:05;12.40;;;6.50;;
26530;SDS011;14201;43.188;24.160;2023-09-08T04:42:32;8.95;;;6.25;;
26530;SDS011;14201;43.188;24.160;2023-09-08T04:44:58;9.02;;;6.75;;
26530;SDS011;14201;43.188;24.160;2023-09-08T04:47:23;11.75;;;8.15;;
26530;SDS011;14201;43.188;24.160;2023-09-08T04:49:49;24.75;;;14.93;;
26530;SDS011;14201;43.188;24.160;2023-09-08T04:52:14;26.23;;;15.82;;
26530;SDS011;14201;43.188;24.160;2023-09-08T04:54:40;26.52;;;14.90;;
26530;SDS011;14201;43.188;24.160;2023-09-08T04:57:06;23.63;;;15.32;;
26530;SDS011;14201;43.188;24.160;2023-09-08T04:59:31;15.88;;;9.05;;
26530;SDS011;14201;43.188;24.160;2023-09-08T05:01:57;19.35;;;11.75;;
26530;SDS011;14201;43.188;24.160;2023-09-08T05:04:24;19.08;;;11.45;;
26530;SDS011;14201;43.188;24.160;2023-09-08T05:06:49;13.02;;;8.15;;
26530;SDS011;14201;43.188;24.160;2023-09-08T05:09:15;11.38;;;7.95;;
26530;SDS011;14201;43.188;24.160;2023-09-08T05:11:40;11.55;;;7.97;;
26530;SDS011;14201;43.188;24.160;2023-09-08T05:14:06;12.43;;;7.30;;
26530;SDS011;14201;43.188;24.160;2023-09-08T05:16:32;11.88;;;7.28;;
26530;SDS011;14201;43.188;24.160;2023-09-08T05:19:17;8.80;;;5.38;;
26530;SDS011;14201;43.188;24.160;2023-09-08T05:21:43;9.68;;;6.10;;
26530;SDS011;14201;43.188;24.160;2023-09-08T05:24:09;11.45;;;6.20;;
26530;SDS011;14201;43.188;24.160;2023-09-08T05:26:36;11.77;;;8.15;;
26530;SDS011;14201;43.188;24.160;2023-09-08T05:29:02;11.25;;;6.55;;
26530;SDS011;14201;43.188;24.160;2023-09-08T05:31:28;12.77;;;5.43;;
26530;SDS011;14201;43.188;24.160;2023-09-08T05:33:53;10.40;;;5.88;;
26530;SDS011;14201;43.188;24.160;2023-09-08T05:36:19;10.90;;;6.05;;
26530;SDS011;14201;43.188;24.160;2023-09-08T05:38:45;9.32;;;5.07;;
26530;SDS011;14201;43.188;24.160;2023-09-08T05:41:10;9.52;;;5.20;;
26530;SDS011;14201;43.188;24.160;2023-09-08T05:43:36;9.13;;;5.30;;
26530;SDS011;14201;43.188;24.160;2023-09-08T05:46:01;9.18;;;4.90;;
26530;SDS011;14201;43.188;24.160;2023-09-08T05:48:27;11.07;;;5.57;;
26530;SDS011;14201;43.188;24.160;2023-09-08T05:50:53;8.35;;;5.50;;
26530;SDS011;14201;43.188;24.160;2023-09-08T05:53:18;8.60;;;6.03;;
26530;SDS011;14201;43.188;24.160;2023-09-08T05:55:44;7.68;;;5.10;;
26530;SDS011;14201;43.188;24.160;2023-09-08T05:58:09;7.95;;;5.00;;
26530;SDS011;14201;43.188;24.160;2023-09-08T06:00:36;11.45;;;5.20;;
26530;SDS011;14201;43.188;24.160;2023-09-08T06:03:01;8.48;;;5.25;;
26530;SDS011;14201;43.188;24.160;2023-09-08T06:05:27;8.13;;;5.18;;
26530;SDS011;14201;43.188;24.160;2023-09-08T06:07:53;7.25;;;4.80;;
26530;SDS011;14201;43.188;24.160;2023-09-08T06:10:18;9.18;;;4.95;;
26530;SDS011;14201;43.188;24.160;2023-09-08T06:12:44;14.88;;;5.00;;
26530;SDS011;14201;43.188;24.160;2023-09-08T06:15:10;10.43;;;4.75;;
26530;SDS011;14201;43.188;24.160;2023-09-08T06:17:35;8.30;;;4.53;;
26530;SDS011;14201;43.188;24.160;2023-09-08T06:20:01;7.82;;;4.10;;
26530;SDS011;14201;43.188;24.160;2023-09-08T06:22:27;8.52;;;4.20;;
26530;SDS011;14201;43.188;24.160;2023-09-08T06:24:52;8.02;;;4.35;;
26530;SDS011;14201;43.188;24.160;2023-09-08T06:27:18;8.02;;;4.30;;
26530;SDS011;14201;43.188;24.160;2023-09-08T06:29:43;6.95;;;4.57;;
26530;SDS011;14201;43.188;24.160;2023-09-08T06:32:10;10.00;;;4.25;;
26530;SDS011;14201;43.188;24.160;2023-09-08T06:34:36;5.45;;;4.20;;
26530;SDS011;14201;43.188;24.160;2023-09-08T06:37:01;7.20;;;4.13;;
26530;SDS011;14201;43.188;24.160;2023-09-08T06:39:27;7.00;;;4.10;;
26530;SDS011;14201;43.188;24.160;2023-09-08T06:41:53;7.45;;;4.40;;
26530;SDS011;14201;43.188;24.160;2023-09-08T06:44:20;11.57;;;4.10;;
26530;SDS011;14201;43.188;24.160;2023-09-08T06:46:45;7.53;;;4.80;;
26530;SDS011;14201;43.188;24.160;2023-09-08T06:49:11;6.20;;;3.78;;
26530;SDS011;14201;43.188;24.160;2023-09-08T06:51:37;4.60;;;3.97;;
26530;SDS011;14201;43.188;24.160;2023-09-08T06:54:03;5.53;;;4.05;;
26530;SDS011;14201;43.188;24.160;2023-09-08T06:56:30;7.68;;;3.45;;
26530;SDS011;14201;43.188;24.160;2023-09-08T06:58:55;7.53;;;4.13;;
26530;SDS011;14201;43.188;24.160;2023-09-08T07:01:23;6.55;;;4.07;;
26530;SDS011;14201;43.188;24.160;2023-09-08T07:03:49;13.07;;;4.05;;
26530;SDS011;14201;43.188;24.160;2023-09-08T07:06:15;10.82;;;4.05;;
26530;SDS011;14201;43.188;24.160;2023-09-08T07:08:41;8.00;;;4.07;;
26530;SDS011;14201;43.188;24.160;2023-09-08T07:11:06;12.05;;;3.90;;
26530;SDS011;14201;43.188;24.160;2023-09-08T07:13:32;10.50;;;4.20;;
26530;SDS011;14201;43.188;24.160;2023-09-08T07:15:58;6.25;;;3.90;;
26530;SDS011;14201;43.188;24.160;2023-09-08T07:18:24;6.35;;;4.50;;
26530;SDS011;14201;43.188;24.160;2023-09-08T07:20:50;11.00;;;4.50;;
26530;SDS011;14201;43.188;24.160;2023-09-08T07:23:18;7.00;;;4.50;;
26530;SDS011;14201;43.188;24.160;2023-09-08T07:25:47;13.10;;;5.38;;
26530;SDS011;14201;43.188;24.160;2023-09-08T07:28:14;9.93;;;4.20;;
26530;SDS011;14201;43.188;24.160;2023-09-08T07:30:40;9.10;;;4.70;;
26530;SDS011;14201;43.188;24.160;2023-09-08T07:33:06;7.05;;;3.90;;
26530;SDS011;14201;43.188;24.160;2023-09-08T07:35:32;7.10;;;4.13;;
26530;SDS011;14201;43.188;24.160;2023-09-08T07:38:01;7.03;;;4.00;;
26530;SDS011;14201;43.188;24.160;2023-09-08T07:40:26;9.20;;;3.85;;
26530;SDS011;14201;43.188;24.160;2023-09-08T07:42:52;6.63;;;4.03;;
26530;SDS011;14201;43.188;24.160;2023-09-08T07:45:17;5.05;;;3.63;;
26530;SDS011;14201;43.188;24.160;2023-09-08T07:47:43;4.63;;;3.60;;
26530;SDS011;14201;43.188;24.160;2023-09-08T07:50:17;8.60;;;4.25;;
26530;SDS011;14201;43.188;24.160;2023-09-08T07:52:50;7.40;;;3.67;;
26530;SDS011;14201;43.188;24.160;2023-09-08T07:55:18;5.43;;;3.42;;
26530;SDS011;14201;43.188;24.160;2023-09-08T07:57:44;8.30;;;4.18;;
26530;SDS011;14201;43.188;24.160;2023-09-08T08:00:11;7.97;;;3.20;;
26530;SDS011;14201;43.188;24.160;2023-09-08T08:02:47;16.45;;;3.75;;
26530;SDS011;14201;43.188;24.160;2023-09-08T08:05:15;6.07;;;3.80;;
26530;SDS011;14201;43.188;24.160;2023-09-08T08:07:41;9.02;;;4.07;;
26530;SDS011;14201;43.188;24.160;2023-09-08T08:10:08;9.73;;;4.00;;
26530;SDS011;14201;43.188;24.160;2023-09-08T08:12:35;7.72;;;3.97;;
26530;SDS011;14201;43.188;24.160;2023-09-08T08:15:00;9.30;;;4.28;;
26530;SDS011;14201;43.188;24.160;2023-09-08T08:17:26;8.20;;;3.63;;
26530;SDS011;14201;43.188;24.160;2023-09-08T08:19:53;10.77;;;3.72;;
26530;SDS011;14201;43.188;24.160;2023-09-08T08:22:19;7.32;;;4.03;;
26530;SDS011;14201;43.188;24.160;2023-09-08T08:24:45;7.78;;;3.67;;
26530;SDS011;14201;43.188;24.160;2023-09-08T08:27:11;12.57;;;4.82;;
26530;SDS011;14201;43.188;24.160;2023-09-08T08:29:36;6.03;;;3.80;;
26530;SDS011;14201;43.188;24.160;2023-09-08T08:32:02;13.15;;;3.67;;
26530;SDS011;14201;43.188;24.160;2023-09-08T08:34:28;6.43;;;4.28;;
26530;SDS011;14201;43.188;24.160;2023-09-08T08:36:53;6.85;;;3.80;;
26530;SDS011;14201;43.188;24.160;2023-09-08T08:39:19;9.52;;;3.80;;
26530;SDS011;14201;43.188;24.160;2023-09-08T08:41:45;7.60;;;3.80;;
26530;SDS011;14201;43.188;24.160;2023-09-08T08:44:10;6.93;;;3.28;;
26530;SDS011;14201;43.188;24.160;2023-09-08T08:46:37;8.18;;;3.30;;
26530;SDS011;14201;43.188;24.160;2023-09-08T08:49:03;7.30;;;3.38;;
26530;SDS011;14201;43.188;24.160;2023-09-08T08:51:32;7.97;;;3.42;;
26530;SDS011;14201;43.188;24.160;2023-09-08T08:54:00;7.78;;;3.70;;
26530;SDS011;14201;43.188;24.160;2023-09-08T08:56:30;9.50;;;3.25;;
26530;SDS011;14201;43.188;24.160;2023-09-08T08:59:00;10.15;;;3.60;;
26530;SDS011;14201;43.188;24.160;2023-09-08T09:01:26;9.70;;;3.55;;
26530;SDS011;14201;43.188;24.160;2023-09-08T09:03:54;8.63;;;3.90;;
26530;SDS011;14201;43.188;24.160;2023-09-08T09:06:20;12.98;;;4.25;;
26530;SDS011;14201;43.188;24.160;2023-09-08T09:08:46;7.03;;;3.63;;
26530;SDS011;14201;43.188;24.160;2023-09-08T09:11:12;9.57;;;3.20;;
26530;SDS011;14201;43.188;24.160;2023-09-08T09:13:38;9.98;;;3.40;;
26530;SDS011;14201;43.188;24.160;2023-09-08T09:16:03;4.47;;;2.80;;
26530;SDS011;14201;43.188;24.160;2023-09-08T09:18:33;8.27;;;2.75;;
26530;SDS011;14201;43.188;24.160;2023-09-08T09:21:00;5.10;;;2.97;;
26530;SDS011;14201;43.188;24.160;2023-09-08T09:23:27;8.93;;;3.15;;
26530;SDS011;14201;43.188;24.160;2023-09-08T09:25:57;6.03;;;2.92;;
26530;SDS011;14201;43.188;24.160;2023-09-08T09:28:23;6.32;;;3.13;;
26530;SDS011;14201;43.188;24.160;2023-09-08T09:30:51;9.90;;;3.50;;
26530;SDS011;14201;43.188;24.160;2023-09-08T09:33:17;15.73;;;13.18;;
26530;SDS011;14201;43.188;24.160;2023-09-08T09:35:44;8.32;;;4.82;;
26530;SDS011;14201;43.188;24.160;2023-09-08T09:38:11;6.10;;;3.10;;
26530;SDS011;14201;43.188;24.160;2023-09-08T09:40:38;8.73;;;3.00;;
26530;SDS011;14201;43.188;24.160;2023-09-08T09:43:04;21.92;;;3.58;;
26530;SDS011;14201;43.188;24.160;2023-09-08T09:45:32;7.43;;;3.25;;
26530;SDS011;14201;43.188;24.160;2023-09-08T09:48:02;8.10;;;6.13;;
26530;SDS011;14201;43.188;24.160;2023-09-08T09:50:32;11.00;;;4.15;;
26530;SDS011;14201;43.188;24.160;2023-09-08T09:52:58;9.10;;;3.13;;
26530;SDS011;14201;43.188;24.160;2023-09-08T09:55:25;8.93;;;3.40;;
26530;SDS011;14201;43.188;24.160;2023-09-08T09:57:55;7.82;;;2.80;;
26530;SDS011;14201;43.188;24.160;2023-09-08T10:00:24;4.95;;;2.45;;
26530;SDS011;14201;43.188;24.160;2023-09-08T10:02:52;7.30;;;2.90;;
26530;SDS011;14201;43.188;24.160;2023-09-08T10:05:19;11.82;;;2.90;;
26530;SDS011;14201;43.188;24.160;2023-09-08T10:07:46;7.50;;;3.08;;
26530;SDS011;14201;43.188;24.160;2023-09-08T10:10:14;7.82;;;2.42;;
26530;SDS011;14201;43.188;24.160;2023-09-08T10:12:41;7.15;;;3.03;;
26530;SDS011;14201;43.188;24.160;2023-09-08T10:17:36;6.35;;;2.80;;
26530;SDS011;14201;43.188;24.160;2023-09-08T10:20:02;6.10;;;2.72;;
26530;SDS011;14201;43.188;24.160;2023-09-08T10:22:38;6.97;;;2.97;;
26530;SDS011;14201;43.188;24.160;2023-09-08T10:25:08;5.90;;;2.92;;
26530;SDS011;14201;43.188;24.160;2023-09-08T10:27:34;5.55;;;2.58;;
26530;SDS011;14201;43.188;24.160;2023-09-08T10:30:03;9.70;;;2.70;;
26530;SDS011;14201;43.188;24.160;2023-09-08T10:32:30;5.57;;;2.70;;
26530;SDS011;14201;43.188;24.160;2023-09-08T10:34:58;10.32;;;2.65;;
26530;SDS011;14201;43.188;24.160;2023-09-08T10:37:26;4.20;;;2.80;;
26530;SDS011;14201;43.188;24.160;2023-09-08T10:39:55;9.30;;;2.80;;
26530;SDS011;14201;43.188;24.160;2023-09-08T10:47:22;7.72;;;3.00;;
26530;SDS011;14201;43.188;24.160;2023-09-08T10:49:49;6.68;;;3.17;;
26530;SDS011;14201;43.188;24.160;2023-09-08T10:52:20;7.43;;;2.90;;
26530;SDS011;14201;43.188;24.160;2023-09-08T10:54:53;6.53;;;3.08;;
26530;SDS011;14201;43.188;24.160;2023-09-08T10:57:21;9.43;;;3.08;;
26530;SDS011;14201;43.188;24.160;2023-09-08T10:59:58;8.13;;;3.15;;
26530;SDS011;14201;43.188;24.160;2023-09-08T11:02:42;4.78;;;3.20;;
26530;SDS011;14201;43.188;24.160;2023-09-08T11:05:14;3.97;;;3.03;;
26530;SDS011;14201;43.188;24.160;2023-09-08T11:07:41;12.05;;;3.70;;
26530;SDS011;14201;43.188;24.160;2023-09-08T11:10:09;11.40;;;4.07;;
26530;SDS011;14201;43.188;24.160;2023-09-08T11:12:36;10.88;;;3.40;;
26530;SDS011;14201;43.188;24.160;2023-09-08T11:15:02;12.95;;;3.28;;
26530;SDS011;14201;43.188;24.160;2023-09-08T11:17:33;7.18;;;2.92;;
26530;SDS011;14201;43.188;24.160;2023-09-08T11:20:01;7.15;;;3.53;;
26530;SDS011;14201;43.188;24.160;2023-09-08T11:22:38;8.10;;;3.33;;
26530;SDS011;14201;43.188;24.160;2023-09-08T11:25:07;6.07;;;2.80;;
26530;SDS011;14201;43.188;24.160;2023-09-08T11:27:35;5.65;;;2.88;;
26530;SDS011;14201;43.188;24.160;2023-09-08T11:30:01;6.82;;;3.22;;
26530;SDS011;14201;43.188;24.160;2023-09-08T11:32:33;5.40;;;3.30;;
26530;SDS011;14201;43.188;24.160;2023-09-08T11:35:06;15.23;;;3.33;;
26530;SDS011;14201;43.188;24.160;2023-09-08T11:37:37;22.38;;;3.83;;
26530;SDS011;14201;43.188;24.160;2023-09-08T11:40:04;6.00;;;3.25;;
26530;SDS011;14201;43.188;24.160;2023-09-08T11:42:34;17.52;;;3.60;;
26530;SDS011;14201;43.188;24.160;2023-09-08T11:45:00;7.15;;;3.20;;
26530;SDS011;14201;43.188;24.160;2023-09-08T11:47:28;5.95;;;3.50;;
26530;SDS011;14201;43.188;24.160;2023-09-08T11:49:55;7.03;;;3.13;;
26530;SDS011;14201;43.188;24.160;2023-09-08T11:52:22;4.53;;;2.85;;
26530;SDS011;14201;43.188;24.160;2023-09-08T11:54:49;5.95;;;3.13;;
26530;SDS011;14201;43.188;24.160;2023-09-08T11:57:16;4.70;;;2.90;;
26530;SDS011;14201;43.188;24.160;2023-09-08T11:59:43;6.07;;;2.90;;
26530;SDS011;14201;43.188;24.160;2023-09-08T12:02:13;5.63;;;3.22;;
26530;SDS011;14201;43.188;24.160;2023-09-08T12:04:39;3.80;;;2.88;;
26530;SDS011;14201;43.188;24.160;2023-09-08T12:07:07;5.50;;;2.88;;
26530;SDS011;14201;43.188;24.160;2023-09-08T12:09:40;6.38;;;2.80;;
26530;SDS011;14201;43.188;24.160;2023-09-08T12:12:10;16.95;;;3.20;;
26530;SDS011;14201;43.188;24.160;2023-09-08T12:14:41;7.28;;;2.80;;
26530;SDS011;14201;43.188;24.160;2023-09-08T12:17:07;4.78;;;2.70;;
26530;SDS011;14201;43.188;24.160;2023-09-08T12:19:33;6.07;;;2.63;;
26530;SDS011;14201;43.188;24.160;2023-09-08T12:22:02;10.38;;;2.75;;
26530;SDS011;14201;43.188;24.160;2023-09-08T12:27:19;4.38;;;2.45;;
26530;SDS011;14201;43.188;24.160;2023-09-08T12:32:25;3.50;;;2.33;;
26530;SDS011;14201;43.188;24.160;2023-09-08T12:34:53;4.07;;;2.58;;
26530;SDS011;14201;43.188;24.160;2023-09-08T12:37:19;4.93;;;2.70;;
26530;SDS011;14201;43.188;24.160;2023-09-08T12:39:48;5.28;;;2.17;;
26530;SDS011;14201;43.188;24.160;2023-09-08T12:42:14;4.80;;;2.30;;
26530;SDS011;14201;43.188;24.160;2023-09-08T12:44:40;6.22;;;2.80;;
26530;SDS011;14201;43.188;24.160;2023-09-08T12:47:09;10.15;;;2.65;;
26530;SDS011;14201;43.188;24.160;2023-09-08T12:52:04;4.68;;;2.08;;
26530;SDS011;14201;43.188;24.160;2023-09-08T12:54:30;7.32;;;2.42;;
26530;SDS011;14201;43.188;24.160;2023-09-08T12:56:55;9.07;;;2.35;;
26530;SDS011;14201;43.188;24.160;2023-09-08T12:59:21;5.30;;;2.67;;
26530;SDS011;14201;43.188;24.160;2023-09-08T13:01:47;6.65;;;2.75;;
26530;SDS011;14201;43.188;24.160;2023-09-08T13:04:12;4.65;;;2.55;;
26530;SDS011;14201;43.188;24.160;2023-09-08T13:06:38;2.88;;;2.45;;
26530;SDS011;14201;43.188;24.160;2023-09-08T13:09:03;5.80;;;2.80;;
26530;SDS011;14201;43.188;24.160;2023-09-08T13:11:30;3.50;;;2.40;;
26530;SDS011;14201;43.188;24.160;2023-09-08T13:13:56;6.57;;;2.38;;
26530;SDS011;14201;43.188;24.160;2023-09-08T13:16:22;9.65;;;2.30;;
26530;SDS011;14201;43.188;24.160;2023-09-08T13:18:47;6.97;;;2.47;;
26530;SDS011;14201;43.188;24.160;2023-09-08T13:21:14;7.85;;;2.97;;
26530;SDS011;14201;43.188;24.160;2023-09-08T13:23:39;9.00;;;2.55;;
26530;SDS011;14201;43.188;24.160;2023-09-08T13:26:05;7.15;;;2.67;;
26530;SDS011;14201;43.188;24.160;2023-09-08T13:28:31;4.05;;;2.58;;
26530;SDS011;14201;43.188;24.160;2023-09-08T13:30:56;6.10;;;2.72;;
26530;SDS011;14201;43.188;24.160;2023-09-08T13:33:22;4.50;;;2.35;;
26530;SDS011;14201;43.188;24.160;2023-09-08T13:35:47;4.95;;;2.42;;
26530;SDS011;14201;43.188;24.160;2023-09-08T13:38:13;7.50;;;2.70;;
26530;SDS011;14201;43.188;24.160;2023-09-08T13:40:38;3.20;;;2.58;;
26530;SDS011;14201;43.188;24.160;2023-09-08T13:43:06;8.48;;;2.80;;
26530;SDS011;14201;43.188;24.160;2023-09-08T13:45:32;5.65;;;2.50;;
26530;SDS011;14201;43.188;24.160;2023-09-08T13:47:57;10.02;;;2.60;;
26530;SDS011;14201;43.188;24.160;2023-09-08T13:50:23;6.18;;;2.50;;
26530;SDS011;14201;43.188;24.160;2023-09-08T13:52:49;6.70;;;2.95;;
26530;SDS011;14201;43.188;24.160;2023-09-08T13:55:15;7.10;;;2.50;;
26530;SDS011;14201;43.188;24.160;2023-09-08T13:57:40;6.85;;;2.70;;
26530;SDS011;14201;43.188;24.160;2023-09-08T14:00:06;4.18;;;2.50;;
26530;SDS011;14201;43.188;24.160;2023-09-08T14:02:33;4.70;;;2.83;;
26530;SDS011;14201;43.188;24.160;2023-09-08T14:04:59;7.88;;;2.78;;
26530;SDS011;14201;43.188;24.160;2023-09-08T14:07:25;8.52;;;2.95;;
26530;SDS011;14201;43.188;24.160;2023-09-08T14:09:50;7.97;;;2.72;;
26530;SDS011;14201;43.188;24.160;2023-09-08T14:12:16;6.13;;;2.80;;
26530;SDS011;14201;43.188;24.160;2023-09-08T14:14:41;8.20;;;2.78;;
26530;SDS011;14201;43.188;24.160;2023-09-08T14:17:07;7.55;;;3.00;;
26530;SDS011;14201;43.188;24.160;2023-09-08T14:19:33;12.90;;;3.53;;
26530;SDS011;14201;43.188;24.160;2023-09-08T14:21:58;8.55;;;2.97;;
26530;SDS011;14201;43.188;24.160;2023-09-08T14:24:24;7.65;;;3.28;;
26530;SDS011;14201;43.188;24.160;2023-09-08T14:26:49;11.25;;;2.80;;
26530;SDS011;14201;43.188;24.160;2023-09-08T14:29:16;8.80;;;3.15;;
26530;SDS011;14201;43.188;24.160;2023-09-08T14:31:42;11.90;;;3.20;;
26530;SDS011;14201;43.188;24.160;2023-09-08T14:34:08;6.47;;;3.03;;
26530;SDS011;14201;43.188;24.160;2023-09-08T14:36:34;6.70;;;2.72;;
26530;SDS011;14201;43.188;24.160;2023-09-08T14:39:00;7.57;;;3.25;;
26530;SDS011;14201;43.188;24.160;2023-09-08T14:41:25;8.90;;;2.83;;
26530;SDS011;14201;43.188;24.160;2023-09-08T14:43:51;5.38;;;3.00;;
26530;SDS011;14201;43.188;24.160;2023-09-08T14:46:17;6.07;;;2.83;;
26530;SDS011;14201;43.188;24.160;2023-09-08T14:48:42;6.15;;;2.70;;
26530;SDS011;14201;43.188;24.160;2023-09-08T14:51:08;7.70;;;3.40;;